sensor_id;sensor_type;location;lat;lon;timestamp;P1;durP1;ratioP1;P2;durP2;ratioP2
33453;SDS011;39400;49.744;7.012;2023-07-31T00:02:17;6.90;;;2.80;;
33453;SDS011;39400;49.744;7.012;2023-07-31T00:04:42;8.35;;;2.60;;
33453;SDS011;39400;49.744;7.012;2023-07-31T00:07:08;12.38;;;3.08;;
33453;SDS011;39400;49.744;7.012;2023-07-31T00:09:33;6.35;;;2.83;;
33453;SDS011;39400;49.744;7.012;2023-07-31T00:11:58;10.90;;;2.92;;
33453;SDS011;39400;49.744;7.012;2023-07-31T00:14:24;7.57;;;2.75;;
33453;SDS011;39400;49.744;7.012;2023-07-31T00:16:49;10.05;;;3.75;;
33453;SDS011;39400;49.744;7.012;2023-07-31T00:19:15;10.93;;;3.50;;
33453;SDS011;39400;49.744;7.012;2023-07-31T00:21:40;15.55;;;3.03;;
33453;SDS011;39400;49.744;7.012;2023-07-31T00:24:05;9.63;;;3.75;;
33453;SDS011;39400;49.744;7.012;2023-07-31T00:26:31;8.93;;;3.22;;
33453;SDS011;39400;49.744;7.012;2023-07-31T00:28:57;5.30;;;3.00;;
33453;SDS011;39400;49.744;7.012;2023-07-31T00:31:22;10.32;;;3.55;;
33453;SDS011;39400;49.744;7.012;2023-07-31T00:33:48;9.70;;;3.28;;
33453;SDS011;39400;49.744;7.012;2023-07-31T00:36:13;10.73;;;3.20;;
33453;SDS011;39400;49.744;7.012;2023-07-31T00:38:39;6.95;;;3.05;;
33453;SDS011;39400;49.744;7.012;2023-07-31T00:41:05;11.30;;;3.35;;
33453;SDS011;39400;49.744;7.012;2023-07-31T00:43:30;12.60;;;3.65;;
33453;SDS011;39400;49.744;7.012;2023-07-31T00:45:56;12.23;;;4.05;;
33453;SDS011;39400;49.744;7.012;2023-07-31T00:48:21;7.80;;;3.38;;
33453;SDS011;39400;49.744;7.012;2023-07-31T00:50:46;11.18;;;3.53;;
33453;SDS011;39400;49.744;7.012;2023-07-31T00:53:12;12.02;;;3.33;;
33453;SDS011;39400;49.744;7.012;2023-07-31T00:55:38;8.32;;;3.58;;
33453;SDS011;39400;49.744;7.012;2023-07-31T00:58:05;8.32;;;3.47;;
33453;SDS011;39400;49.744;7.012;2023-07-31T01:00:30;9.50;;;3.70;;
33453;SDS011;39400;49.744;7.012;2023-07-31T01:02:55;10.07;;;3.63;;
33453;SDS011;39400;49.744;7.012;2023-07-31T01:05:25;11.63;;;3.25;;
33453;SDS011;39400;49.744;7.012;2023-07-31T01:08:04;8.70;;;3.22;;
33453;SDS011;39400;49.744;7.012;2023-07-31T01:10:41;10.20;;;3.63;;
33453;SDS011;39400;49.744;7.012;2023-07-31T01:13:14;9.90;;;3.00;;
33453;SDS011;39400;49.744;7.012;2023-07-31T01:15:40;13.50;;;4.47;;
33453;SDS011;39400;49.744;7.012;2023-07-31T01:18:05;13.68;;;3.25;;
33453;SDS011;39400;49.744;7.012;2023-07-31T01:20:30;8.63;;;3.22;;
33453;SDS011;39400;49.744;7.012;2023-07-31T01:26:00;9.35;;;4.32;;
33453;SDS011;39400;49.744;7.012;2023-07-31T01:28:40;11.63;;;3.80;;
33453;SDS011;39400;49.744;7.012;2023-07-31T01:31:19;13.98;;;3.53;;
33453;SDS011;39400;49.744;7.012;2023-07-31T01:33:48;8.70;;;3.13;;
33453;SDS011;39400;49.744;7.012;2023-07-31T01:36:15;7.72;;;3.78;;
33453;SDS011;39400;49.744;7.012;2023-07-31T01:38:41;12.18;;;3.20;;
33453;SDS011;39400;49.744;7.012;2023-07-31T01:41:07;8.00;;;2.88;;
33453;SDS011;39400;49.744;7.012;2023-07-31T01:43:33;12.90;;;3.53;;
33453;SDS011;39400;49.744;7.012;2023-07-31T01:45:58;9.65;;;3.22;;
33453;SDS011;39400;49.744;7.012;2023-07-31T01:48:23;8.48;;;4.03;;
33453;SDS011;39400;49.744;7.012;2023-07-31T01:50:49;8.77;;;3.58;;
33453;SDS011;39400;49.744;7.012;2023-07-31T01:53:14;8.15;;;3.28;;
33453;SDS011;39400;49.744;7.012;2023-07-31T01:55:40;7.82;;;3.70;;
33453;SDS011;39400;49.744;7.012;2023-07-31T01:58:07;7.80;;;3.42;;
33453;SDS011;39400;49.744;7.012;2023-07-31T02:00:32;7.13;;;3.20;;
33453;SDS011;39400;49.744;7.012;2023-07-31T02:02:59;8.57;;;2.75;;
33453;SDS011;39400;49.744;7.012;2023-07-31T02:05:24;8.15;;;3.97;;
33453;SDS011;39400;49.744;7.012;2023-07-31T02:07:50;11.48;;;3.58;;
33453;SDS011;39400;49.744;7.012;2023-07-31T02:10:15;6.38;;;2.92;;
33453;SDS011;39400;49.744;7.012;2023-07-31T02:12:40;12.93;;;3.40;;
33453;SDS011;39400;49.744;7.012;2023-07-31T02:15:06;8.10;;;2.85;;
33453;SDS011;39400;49.744;7.012;2023-07-31T02:17:31;8.77;;;3.08;;
33453;SDS011;39400;49.744;7.012;2023-07-31T02:19:57;7.50;;;3.03;;
33453;SDS011;39400;49.744;7.012;2023-07-31T02:22:22;11.98;;;4.50;;
33453;SDS011;39400;49.744;7.012;2023-07-31T02:24:48;10.50;;;3.58;;
33453;SDS011;39400;49.744;7.012;2023-07-31T02:27:13;12.70;;;3.38;;
33453;SDS011;39400;49.744;7.012;2023-07-31T02:29:39;17.25;;;3.67;;
33453;SDS011;39400;49.744;7.012;2023-07-31T02:32:04;8.95;;;3.10;;
33453;SDS011;39400;49.744;7.012;2023-07-31T02:34:30;9.88;;;3.08;;
33453;SDS011;39400;49.744;7.012;2023-07-31T02:36:55;8.10;;;3.10;;
33453;SDS011;39400;49.744;7.012;2023-07-31T02:39:20;8.48;;;3.05;;
33453;SDS011;39400;49.744;7.012;2023-07-31T02:41:46;10.27;;;3.50;;
33453;SDS011;39400;49.744;7.012;2023-07-31T02:44:11;8.77;;;3.33;;
33453;SDS011;39400;49.744;7.012;2023-07-31T02:46:37;10.20;;;3.38;;
33453;SDS011;39400;49.744;7.012;2023-07-31T02:49:02;12.23;;;3.58;;
33453;SDS011;39400;49.744;7.012;2023-07-31T02:51:28;11.30;;;3.80;;
33453;SDS011;39400;49.744;7.012;2023-07-31T02:53:53;9.38;;;3.22;;
33453;SDS011;39400;49.744;7.012;2023-07-31T02:56:18;8.13;;;3.58;;
33453;SDS011;39400;49.744;7.012;2023-07-31T02:58:43;10.23;;;3.72;;
33453;SDS011;39400;49.744;7.012;2023-07-31T03:01:09;13.40;;;3.15;;
33453;SDS011;39400;49.744;7.012;2023-07-31T03:03:35;10.63;;;3.47;;
33453;SDS011;39400;49.744;7.012;2023-07-31T03:06:00;7.85;;;3.28;;
33453;SDS011;39400;49.744;7.012;2023-07-31T03:08:25;9.38;;;3.25;;
33453;SDS011;39400;49.744;7.012;2023-07-31T03:10:51;14.30;;;4.35;;
33453;SDS011;39400;49.744;7.012;2023-07-31T03:13:17;12.13;;;3.97;;
33453;SDS011;39400;49.744;7.012;2023-07-31T03:15:42;10.15;;;3.17;;
33453;SDS011;39400;49.744;7.012;2023-07-31T03:18:07;12.05;;;4.25;;
33453;SDS011;39400;49.744;7.012;2023-07-31T03:20:33;10.48;;;3.10;;
33453;SDS011;39400;49.744;7.012;2023-07-31T03:22:58;12.43;;;3.47;;
33453;SDS011;39400;49.744;7.012;2023-07-31T03:25:23;8.60;;;3.15;;
33453;SDS011;39400;49.744;7.012;2023-07-31T03:27:49;17.77;;;4.07;;
33453;SDS011;39400;49.744;7.012;2023-07-31T03:30:15;11.15;;;3.53;;
33453;SDS011;39400;49.744;7.012;2023-07-31T03:32:41;11.23;;;4.00;;
33453;SDS011;39400;49.744;7.012;2023-07-31T03:35:06;8.38;;;3.60;;
33453;SDS011;39400;49.744;7.012;2023-07-31T03:37:32;11.57;;;3.95;;
33453;SDS011;39400;49.744;7.012;2023-07-31T03:39:57;14.95;;;3.88;;
33453;SDS011;39400;49.744;7.012;2023-07-31T03:42:22;7.65;;;3.42;;
33453;SDS011;39400;49.744;7.012;2023-07-31T03:44:49;11.07;;;3.45;;
33453;SDS011;39400;49.744;7.012;2023-07-31T03:47:16;14.68;;;4.05;;
33453;SDS011;39400;49.744;7.012;2023-07-31T03:49:41;10.90;;;3.80;;
33453;SDS011;39400;49.744;7.012;2023-07-31T03:52:06;12.55;;;4.18;;
33453;SDS011;39400;49.744;7.012;2023-07-31T03:54:32;12.32;;;3.83;;
33453;SDS011;39400;49.744;7.012;2023-07-31T03:56:57;20.02;;;4.95;;
33453;SDS011;39400;49.744;7.012;2023-07-31T03:59:22;13.60;;;4.20;;
33453;SDS011;39400;49.744;7.012;2023-07-31T04:01:47;9.10;;;3.28;;
33453;SDS011;39400;49.744;7.012;2023-07-31T04:04:13;9.45;;;3.50;;
33453;SDS011;39400;49.744;7.012;2023-07-31T04:06:38;12.85;;;3.72;;
33453;SDS011;39400;49.744;7.012;2023-07-31T04:09:03;12.27;;;3.85;;
33453;SDS011;39400;49.744;7.012;2023-07-31T04:11:29;7.95;;;3.00;;
33453;SDS011;39400;49.744;7.012;2023-07-31T04:13:54;11.27;;;4.20;;
33453;SDS011;39400;49.744;7.012;2023-07-31T04:16:19;9.90;;;4.28;;
33453;SDS011;39400;49.744;7.012;2023-07-31T04:18:44;14.98;;;3.50;;
33453;SDS011;39400;49.744;7.012;2023-07-31T04:21:10;15.73;;;5.07;;
33453;SDS011;39400;49.744;7.012;2023-07-31T04:23:35;17.83;;;3.85;;
33453;SDS011;39400;49.744;7.012;2023-07-31T04:26:00;14.35;;;4.55;;
33453;SDS011;39400;49.744;7.012;2023-07-31T04:28:26;9.88;;;3.45;;
33453;SDS011;39400;49.744;7.012;2023-07-31T04:30:51;15.40;;;3.78;;
33453;SDS011;39400;49.744;7.012;2023-07-31T04:33:17;10.85;;;3.55;;
33453;SDS011;39400;49.744;7.012;2023-07-31T04:35:48;10.07;;;3.60;;
33453;SDS011;39400;49.744;7.012;2023-07-31T04:38:18;12.13;;;4.07;;
33453;SDS011;39400;49.744;7.012;2023-07-31T04:40:46;8.88;;;3.88;;
33453;SDS011;39400;49.744;7.012;2023-07-31T04:43:12;8.82;;;3.35;;
33453;SDS011;39400;49.744;7.012;2023-07-31T04:45:37;10.75;;;3.53;;
33453;SDS011;39400;49.744;7.012;2023-07-31T04:48:02;7.50;;;3.17;;
33453;SDS011;39400;49.744;7.012;2023-07-31T04:50:28;6.97;;;2.95;;
33453;SDS011;39400;49.744;7.012;2023-07-31T04:52:53;9.75;;;4.20;;
33453;SDS011;39400;49.744;7.012;2023-07-31T04:55:18;13.15;;;4.15;;
33453;SDS011;39400;49.744;7.012;2023-07-31T04:57:44;9.23;;;3.58;;
33453;SDS011;39400;49.744;7.012;2023-07-31T05:00:09;12.88;;;3.47;;
33453;SDS011;39400;49.744;7.012;2023-07-31T05:02:35;12.52;;;3.88;;
33453;SDS011;39400;49.744;7.012;2023-07-31T05:05:00;14.73;;;4.25;;
33453;SDS011;39400;49.744;7.012;2023-07-31T05:07:25;9.77;;;3.70;;
33453;SDS011;39400;49.744;7.012;2023-07-31T05:09:51;9.90;;;4.20;;
33453;SDS011;39400;49.744;7.012;2023-07-31T05:12:16;12.85;;;4.30;;
33453;SDS011;39400;49.744;7.012;2023-07-31T05:14:41;7.65;;;3.85;;
33453;SDS011;39400;49.744;7.012;2023-07-31T05:17:06;12.82;;;3.72;;
33453;SDS011;39400;49.744;7.012;2023-07-31T05:19:32;9.05;;;3.30;;
33453;SDS011;39400;49.744;7.012;2023-07-31T05:21:57;10.13;;;4.03;;
33453;SDS011;39400;49.744;7.012;2023-07-31T05:24:22;5.32;;;2.78;;
33453;SDS011;39400;49.744;7.012;2023-07-31T05:26:48;11.88;;;3.65;;
33453;SDS011;39400;49.744;7.012;2023-07-31T05:29:13;9.13;;;3.33;;
33453;SDS011;39400;49.744;7.012;2023-07-31T05:31:38;6.85;;;3.08;;
33453;SDS011;39400;49.744;7.012;2023-07-31T05:34:04;8.52;;;2.95;;
33453;SDS011;39400;49.744;7.012;2023-07-31T05:36:29;8.95;;;3.80;;
33453;SDS011;39400;49.744;7.012;2023-07-31T05:38:54;7.03;;;3.53;;
33453;SDS011;39400;49.744;7.012;2023-07-31T05:41:20;10.60;;;3.60;;
33453;SDS011;39400;49.744;7.012;2023-07-31T05:43:45;13.70;;;4.38;;
33453;SDS011;39400;49.744;7.012;2023-07-31T05:46:10;7.93;;;3.90;;
33453;SDS011;39400;49.744;7.012;2023-07-31T05:48:36;9.30;;;3.10;;
33453;SDS011;39400;49.744;7.012;2023-07-31T05:51:01;8.75;;;3.58;;
33453;SDS011;39400;49.744;7.012;2023-07-31T05:53:27;10.50;;;3.30;;
33453;SDS011;39400;49.744;7.012;2023-07-31T05:55:52;15.10;;;3.78;;
33453;SDS011;39400;49.744;7.012;2023-07-31T05:58:17;11.43;;;3.25;;
33453;SDS011;39400;49.744;7.012;2023-07-31T06:00:42;12.85;;;4.25;;
33453;SDS011;39400;49.744;7.012;2023-07-31T06:03:08;12.13;;;3.80;;
33453;SDS011;39400;49.744;7.012;2023-07-31T06:05:33;8.07;;;3.25;;
33453;SDS011;39400;49.744;7.012;2023-07-31T06:07:58;9.40;;;3.05;;
33453;SDS011;39400;49.744;7.012;2023-07-31T06:10:24;10.15;;;3.80;;
33453;SDS011;39400;49.744;7.012;2023-07-31T06:12:49;11.65;;;4.43;;
33453;SDS011;39400;49.744;7.012;2023-07-31T06:15:14;11.25;;;3.63;;
33453;SDS011;39400;49.744;7.012;2023-07-31T06:17:40;11.35;;;3.67;;
33453;SDS011;39400;49.744;7.012;2023-07-31T06:20:06;11.63;;;3.25;;
33453;SDS011;39400;49.744;7.012;2023-07-31T06:22:32;6.43;;;2.80;;
33453;SDS011;39400;49.744;7.012;2023-07-31T06:24:57;12.95;;;3.65;;
33453;SDS011;39400;49.744;7.012;2023-07-31T06:27:23;12.05;;;3.58;;
33453;SDS011;39400;49.744;7.012;2023-07-31T06:29:48;14.90;;;3.65;;
33453;SDS011;39400;49.744;7.012;2023-07-31T06:32:14;7.38;;;3.72;;
33453;SDS011;39400;49.744;7.012;2023-07-31T06:34:39;9.15;;;3.33;;
33453;SDS011;39400;49.744;7.012;2023-07-31T06:37:04;13.40;;;3.95;;
33453;SDS011;39400;49.744;7.012;2023-07-31T06:39:30;7.95;;;3.13;;
33453;SDS011;39400;49.744;7.012;2023-07-31T06:41:55;8.07;;;3.78;;
33453;SDS011;39400;49.744;7.012;2023-07-31T06:44:22;10.32;;;4.03;;
33453;SDS011;39400;49.744;7.012;2023-07-31T06:46:47;11.32;;;3.20;;
33453;SDS011;39400;49.744;7.012;2023-07-31T06:49:12;9.25;;;3.75;;
33453;SDS011;39400;49.744;7.012;2023-07-31T06:51:38;11.32;;;3.78;;
33453;SDS011;39400;49.744;7.012;2023-07-31T06:54:03;9.63;;;3.33;;
33453;SDS011;39400;49.744;7.012;2023-07-31T06:56:28;13.38;;;3.40;;
33453;SDS011;39400;49.744;7.012;2023-07-31T06:58:54;11.98;;;4.05;;
33453;SDS011;39400;49.744;7.012;2023-07-31T07:01:20;11.35;;;3.70;;
33453;SDS011;39400;49.744;7.012;2023-07-31T07:03:46;7.57;;;3.78;;
33453;SDS011;39400;49.744;7.012;2023-07-31T07:06:11;9.00;;;3.13;;
33453;SDS011;39400;49.744;7.012;2023-07-31T07:08:37;9.90;;;3.30;;
33453;SDS011;39400;49.744;7.012;2023-07-31T07:11:02;15.85;;;4.65;;
33453;SDS011;39400;49.744;7.012;2023-07-31T07:13:27;20.10;;;4.65;;
33453;SDS011;39400;49.744;7.012;2023-07-31T07:15:53;14.18;;;3.55;;
33453;SDS011;39400;49.744;7.012;2023-07-31T07:18:18;12.60;;;3.75;;
33453;SDS011;39400;49.744;7.012;2023-07-31T07:20:49;8.55;;;3.50;;
33453;SDS011;39400;49.744;7.012;2023-07-31T07:23:15;10.80;;;3.53;;
33453;SDS011;39400;49.744;7.012;2023-07-31T07:25:40;6.97;;;3.03;;
33453;SDS011;39400;49.744;7.012;2023-07-31T07:28:06;7.50;;;3.45;;
33453;SDS011;39400;49.744;7.012;2023-07-31T07:30:32;8.93;;;3.55;;
33453;SDS011;39400;49.744;7.012;2023-07-31T07:32:57;12.73;;;3.97;;
33453;SDS011;39400;49.744;7.012;2023-07-31T07:35:22;8.65;;;3.22;;
33453;SDS011;39400;49.744;7.012;2023-07-31T07:37:48;6.35;;;3.03;;
33453;SDS011;39400;49.744;7.012;2023-07-31T07:40:14;7.90;;;3.78;;
33453;SDS011;39400;49.744;7.012;2023-07-31T07:42:39;7.70;;;2.90;;
33453;SDS011;39400;49.744;7.012;2023-07-31T07:45:05;11.45;;;3.83;;
33453;SDS011;39400;49.744;7.012;2023-07-31T07:47:30;8.73;;;3.58;;
33453;SDS011;39400;49.744;7.012;2023-07-31T07:49:56;10.27;;;4.05;;
33453;SDS011;39400;49.744;7.012;2023-07-31T07:52:21;9.77;;;3.38;;
33453;SDS011;39400;49.744;7.012;2023-07-31T07:54:46;9.27;;;3.65;;
33453;SDS011;39400;49.744;7.012;2023-07-31T07:57:12;6.97;;;2.88;;
33453;SDS011;39400;49.744;7.012;2023-07-31T07:59:37;9.85;;;3.72;;
33453;SDS011;39400;49.744;7.012;2023-07-31T08:02:03;8.27;;;3.50;;
33453;SDS011;39400;49.744;7.012;2023-07-31T08:04:28;7.32;;;3.58;;
33453;SDS011;39400;49.744;7.012;2023-07-31T08:06:53;9.32;;;3.22;;
33453;SDS011;39400;49.744;7.012;2023-07-31T08:09:19;8.52;;;3.40;;
33453;SDS011;39400;49.744;7.012;2023-07-31T08:11:44;8.35;;;3.15;;
33453;SDS011;39400;49.744;7.012;2023-07-31T08:14:10;8.25;;;3.15;;
33453;SDS011;39400;49.744;7.012;2023-07-31T08:16:35;13.23;;;3.80;;
33453;SDS011;39400;49.744;7.012;2023-07-31T08:19:00;9.07;;;3.58;;
33453;SDS011;39400;49.744;7.012;2023-07-31T08:21:26;10.60;;;3.55;;
33453;SDS011;39400;49.744;7.012;2023-07-31T08:23:51;10.35;;;3.72;;
33453;SDS011;39400;49.744;7.012;2023-07-31T08:26:17;14.00;;;4.40;;
33453;SDS011;39400;49.744;7.012;2023-07-31T08:28:44;9.20;;;3.00;;
33453;SDS011;39400;49.744;7.012;2023-07-31T08:31:09;10.43;;;3.63;;
33453;SDS011;39400;49.744;7.012;2023-07-31T08:33:35;9.73;;;3.70;;
33453;SDS011;39400;49.744;7.012;2023-07-31T08:36:00;9.43;;;3.88;;
33453;SDS011;39400;49.744;7.012;2023-07-31T08:38:25;9.95;;;4.38;;
33453;SDS011;39400;49.744;7.012;2023-07-31T08:40:51;8.05;;;3.75;;
33453;SDS011;39400;49.744;7.012;2023-07-31T08:43:16;10.93;;;4.25;;
33453;SDS011;39400;49.744;7.012;2023-07-31T08:45:42;11.85;;;3.78;;
33453;SDS011;39400;49.744;7.012;2023-07-31T08:48:08;13.05;;;3.67;;
33453;SDS011;39400;49.744;7.012;2023-07-31T08:50:33;11.88;;;4.22;;
33453;SDS011;39400;49.744;7.012;2023-07-31T08:52:59;8.38;;;3.47;;
33453;SDS011;39400;49.744;7.012;2023-07-31T08:55:24;6.20;;;2.90;;
33453;SDS011;39400;49.744;7.012;2023-07-31T08:57:51;9.95;;;3.90;;
33453;SDS011;39400;49.744;7.012;2023-07-31T09:00:17;12.00;;;3.50;;
33453;SDS011;39400;49.744;7.012;2023-07-31T09:02:46;13.60;;;4.32;;
33453;SDS011;39400;49.744;7.012;2023-07-31T09:05:16;10.65;;;3.67;;
33453;SDS011;39400;49.744;7.012;2023-07-31T09:07:42;7.20;;;3.50;;
33453;SDS011;39400;49.744;7.012;2023-07-31T09:10:11;11.90;;;4.32;;
33453;SDS011;39400;49.744;7.012;2023-07-31T09:12:36;10.27;;;4.35;;
33453;SDS011;39400;49.744;7.012;2023-07-31T09:15:02;11.93;;;4.43;;
33453;SDS011;39400;49.744;7.012;2023-07-31T09:17:29;12.05;;;3.90;;
33453;SDS011;39400;49.744;7.012;2023-07-31T09:19:58;10.55;;;3.80;;
33453;SDS011;39400;49.744;7.012;2023-07-31T09:22:38;8.27;;;3.60;;
33453;SDS011;39400;49.744;7.012;2023-07-31T09:25:17;6.18;;;3.50;;
33453;SDS011;39400;49.744;7.012;2023-07-31T09:27:57;7.93;;;4.35;;
33453;SDS011;39400;49.744;7.012;2023-07-31T09:30:24;9.18;;;4.30;;
33453;SDS011;39400;49.744;7.012;2023-07-31T09:32:50;8.57;;;4.00;;
33453;SDS011;39400;49.744;7.012;2023-07-31T09:37:48;9.77;;;4.13;;
33453;SDS011;39400;49.744;7.012;2023-07-31T09:40:24;9.25;;;4.22;;
33453;SDS011;39400;49.744;7.012;2023-07-31T09:42:50;12.38;;;3.67;;
33453;SDS011;39400;49.744;7.012;2023-07-31T09:45:16;8.38;;;3.72;;
33453;SDS011;39400;49.744;7.012;2023-07-31T09:47:47;9.02;;;3.88;;
33453;SDS011;39400;49.744;7.012;2023-07-31T09:50:13;10.52;;;4.60;;
33453;SDS011;39400;49.744;7.012;2023-07-31T09:52:39;8.63;;;3.78;;
33453;SDS011;39400;49.744;7.012;2023-07-31T09:55:04;18.88;;;4.15;;
33453;SDS011;39400;49.744;7.012;2023-07-31T09:57:30;13.57;;;3.83;;
33453;SDS011;39400;49.744;7.012;2023-07-31T09:59:57;10.45;;;3.85;;
33453;SDS011;39400;49.744;7.012;2023-07-31T10:02:23;8.25;;;3.70;;
33453;SDS011;39400;49.744;7.012;2023-07-31T10:04:50;7.47;;;3.70;;
33453;SDS011;39400;49.744;7.012;2023-07-31T10:07:16;5.82;;;3.08;;
33453;SDS011;39400;49.744;7.012;2023-07-31T10:09:43;8.55;;;3.97;;
33453;SDS011;39400;49.744;7.012;2023-07-31T10:12:10;9.73;;;4.53;;
33453;SDS011;39400;49.744;7.012;2023-07-31T10:14:39;9.25;;;3.42;;
33453;SDS011;39400;49.744;7.012;2023-07-31T10:17:06;10.43;;;3.95;;
33453;SDS011;39400;49.744;7.012;2023-07-31T10:19:33;13.80;;;3.70;;
33453;SDS011;39400;49.744;7.012;2023-07-31T10:21:59;14.45;;;9.65;;
33453;SDS011;39400;49.744;7.012;2023-07-31T10:24:26;22.88;;;17.27;;
33453;SDS011;39400;49.744;7.012;2023-07-31T10:26:53;21.45;;;14.75;;
33453;SDS011;39400;49.744;7.012;2023-07-31T10:29:22;8.48;;;4.53;;
33453;SDS011;39400;49.744;7.012;2023-07-31T10:31:49;10.82;;;4.32;;
33453;SDS011;39400;49.744;7.012;2023-07-31T10:34:15;9.27;;;4.07;;
33453;SDS011;39400;49.744;7.012;2023-07-31T10:36:42;14.30;;;3.80;;
33453;SDS011;39400;49.744;7.012;2023-07-31T10:39:33;6.72;;;3.28;;
33453;SDS011;39400;49.744;7.012;2023-07-31T10:42:12;7.35;;;3.28;;
33453;SDS011;39400;49.744;7.012;2023-07-31T10:44:37;8.55;;;3.15;;
33453;SDS011;39400;49.744;7.012;2023-07-31T10:47:03;9.13;;;3.92;;
33453;SDS011;39400;49.744;7.012;2023-07-31T10:49:28;11.32;;;3.30;;
33453;SDS011;39400;49.744;7.012;2023-07-31T10:51:54;6.95;;;2.65;;
33453;SDS011;39400;49.744;7.012;2023-07-31T10:54:21;9.63;;;3.35;;
33453;SDS011;39400;49.744;7.012;2023-07-31T10:56:46;6.95;;;2.97;;
33453;SDS011;39400;49.744;7.012;2023-07-31T10:59:15;9.57;;;3.78;;
33453;SDS011;39400;49.744;7.012;2023-07-31T11:01:55;7.65;;;2.80;;
33453;SDS011;39400;49.744;7.012;2023-07-31T11:04:22;9.07;;;2.90;;
33453;SDS011;39400;49.744;7.012;2023-07-31T11:06:58;8.00;;;3.25;;
33453;SDS011;39400;49.744;7.012;2023-07-31T11:09:25;4.80;;;2.90;;
33453;SDS011;39400;49.744;7.012;2023-07-31T11:14:20;14.18;;;3.10;;
33453;SDS011;39400;49.744;7.012;2023-07-31T11:16:45;5.22;;;2.83;;
33453;SDS011;39400;49.744;7.012;2023-07-31T11:19:14;7.53;;;3.00;;
33453;SDS011;39400;49.744;7.012;2023-07-31T11:21:39;6.00;;;2.80;;
33453;SDS011;39400;49.744;7.012;2023-07-31T11:24:05;7.32;;;3.05;;
33453;SDS011;39400;49.744;7.012;2023-07-31T11:26:30;7.72;;;2.78;;
33453;SDS011;39400;49.744;7.012;2023-07-31T11:28:56;7.50;;;2.55;;
33453;SDS011;39400;49.744;7.012;2023-07-31T11:31:21;6.07;;;2.95;;
33453;SDS011;39400;49.744;7.012;2023-07-31T11:33:46;9.13;;;3.78;;
33453;SDS011;39400;49.744;7.012;2023-07-31T11:36:19;6.25;;;2.72;;
33453;SDS011;39400;49.744;7.012;2023-07-31T11:38:45;9.70;;;3.10;;
33453;SDS011;39400;49.744;7.012;2023-07-31T11:41:13;7.35;;;3.38;;
33453;SDS011;39400;49.744;7.012;2023-07-31T11:43:39;5.35;;;2.88;;
33453;SDS011;39400;49.744;7.012;2023-07-31T11:46:04;5.40;;;3.15;;
33453;SDS011;39400;49.744;7.012;2023-07-31T11:48:36;7.25;;;2.97;;
33453;SDS011;39400;49.744;7.012;2023-07-31T11:51:03;9.13;;;2.55;;
33453;SDS011;39400;49.744;7.012;2023-07-31T11:53:31;10.90;;;3.17;;
33453;SDS011;39400;49.744;7.012;2023-07-31T11:56:01;4.95;;;3.08;;
33453;SDS011;39400;49.744;7.012;2023-07-31T11:58:28;8.13;;;2.97;;
33453;SDS011;39400;49.744;7.012;2023-07-31T12:00:54;11.02;;;3.00;;
33453;SDS011;39400;49.744;7.012;2023-07-31T12:03:21;8.20;;;2.83;;
33453;SDS011;39400;49.744;7.012;2023-07-31T12:05:47;5.40;;;2.75;;
33453;SDS011;39400;49.744;7.012;2023-07-31T12:08:13;6.38;;;3.42;;
33453;SDS011;39400;49.744;7.012;2023-07-31T12:10:39;9.57;;;3.00;;
33453;SDS011;39400;49.744;7.012;2023-07-31T12:13:11;6.30;;;3.08;;
33453;SDS011;39400;49.744;7.012;2023-07-31T12:15:45;5.55;;;2.85;;
33453;SDS011;39400;49.744;7.012;2023-07-31T12:18:14;6.93;;;2.75;;
33453;SDS011;39400;49.744;7.012;2023-07-31T12:20:57;6.53;;;2.90;;
33453;SDS011;39400;49.744;7.012;2023-07-31T12:23:25;5.78;;;2.55;;
33453;SDS011;39400;49.744;7.012;2023-07-31T12:25:59;5.50;;;2.50;;
33453;SDS011;39400;49.744;7.012;2023-07-31T12:31:07;5.53;;;2.50;;
33453;SDS011;39400;49.744;7.012;2023-07-31T12:33:35;6.65;;;2.75;;
33453;SDS011;39400;49.744;7.012;2023-07-31T12:36:07;5.90;;;2.63;;
33453;SDS011;39400;49.744;7.012;2023-07-31T12:38:34;6.60;;;2.40;;
33453;SDS011;39400;49.744;7.012;2023-07-31T12:40:59;6.32;;;2.67;;
33453;SDS011;39400;49.744;7.012;2023-07-31T12:43:25;6.07;;;2.88;;
33453;SDS011;39400;49.744;7.012;2023-07-31T12:45:50;6.30;;;3.17;;
33453;SDS011;39400;49.744;7.012;2023-07-31T12:48:16;7.88;;;2.90;;
33453;SDS011;39400;49.744;7.012;2023-07-31T12:50:41;7.82;;;2.95;;
33453;SDS011;39400;49.744;7.012;2023-07-31T12:53:07;6.63;;;2.38;;
33453;SDS011;39400;49.744;7.012;2023-07-31T12:55:32;6.05;;;2.83;;
33453;SDS011;39400;49.744;7.012;2023-07-31T12:57:58;13.73;;;2.88;;
33453;SDS011;39400;49.744;7.012;2023-07-31T13:00:24;5.72;;;2.65;;
33453;SDS011;39400;49.744;7.012;2023-07-31T13:02:49;7.10;;;2.88;;
33453;SDS011;39400;49.744;7.012;2023-07-31T13:05:14;8.63;;;2.90;;
33453;SDS011;39400;49.744;7.012;2023-07-31T13:07:40;4.75;;;2.63;;
33453;SDS011;39400;49.744;7.012;2023-07-31T13:10:06;4.60;;;2.40;;
33453;SDS011;39400;49.744;7.012;2023-07-31T13:12:32;6.15;;;2.55;;
33453;SDS011;39400;49.744;7.012;2023-07-31T13:14:57;7.03;;;3.08;;
33453;SDS011;39400;49.744;7.012;2023-07-31T13:17:23;6.30;;;2.78;;
33453;SDS011;39400;49.744;7.012;2023-07-31T13:19:48;4.43;;;2.35;;
33453;SDS011;39400;49.744;7.012;2023-07-31T13:22:13;4.85;;;2.72;;
33453;SDS011;39400;49.744;7.012;2023-07-31T13:24:39;6.47;;;2.67;;
33453;SDS011;39400;49.744;7.012;2023-07-31T13:27:04;8.13;;;2.88;;
33453;SDS011;39400;49.744;7.012;2023-07-31T13:29:29;10.05;;;2.80;;
33453;SDS011;39400;49.744;7.012;2023-07-31T13:31:55;8.32;;;2.67;;
33453;SDS011;39400;49.744;7.012;2023-07-31T13:34:20;4.68;;;2.42;;
33453;SDS011;39400;49.744;7.012;2023-07-31T13:36:46;4.82;;;2.45;;
33453;SDS011;39400;49.744;7.012;2023-07-31T13:39:11;8.02;;;2.95;;
33453;SDS011;39400;49.744;7.012;2023-07-31T13:41:36;9.05;;;2.90;;
33453;SDS011;39400;49.744;7.012;2023-07-31T13:44:02;7.88;;;2.58;;
33453;SDS011;39400;49.744;7.012;2023-07-31T13:46:27;4.22;;;2.55;;
33453;SDS011;39400;49.744;7.012;2023-07-31T13:48:53;5.15;;;3.28;;
33453;SDS011;39400;49.744;7.012;2023-07-31T13:51:18;5.55;;;2.60;;
33453;SDS011;39400;49.744;7.012;2023-07-31T13:53:43;3.55;;;2.33;;
33453;SDS011;39400;49.744;7.012;2023-07-31T13:56:09;4.65;;;2.47;;
33453;SDS011;39400;49.744;7.012;2023-07-31T13:58:34;4.35;;;2.28;;
33453;SDS011;39400;49.744;7.012;2023-07-31T14:00:59;9.23;;;3.05;;
33453;SDS011;39400;49.744;7.012;2023-07-31T14:03:25;4.18;;;2.70;;
33453;SDS011;39400;49.744;7.012;2023-07-31T14:05:51;7.80;;;2.50;;
33453;SDS011;39400;49.744;7.012;2023-07-31T14:08:17;8.93;;;2.63;;
33453;SDS011;39400;49.744;7.012;2023-07-31T14:10:42;7.28;;;2.78;;
33453;SDS011;39400;49.744;7.012;2023-07-31T14:13:08;5.78;;;2.70;;
33453;SDS011;39400;49.744;7.012;2023-07-31T14:15:33;8.38;;;2.85;;
33453;SDS011;39400;49.744;7.012;2023-07-31T14:17:58;6.65;;;2.25;;
33453;SDS011;39400;49.744;7.012;2023-07-31T14:20:24;6.22;;;2.55;;
33453;SDS011;39400;49.744;7.012;2023-07-31T14:22:49;8.50;;;3.08;;
33453;SDS011;39400;49.744;7.012;2023-07-31T14:25:14;8.57;;;2.83;;
33453;SDS011;39400;49.744;7.012;2023-07-31T14:27:40;9.23;;;2.67;;
33453;SDS011;39400;49.744;7.012;2023-07-31T14:30:05;7.18;;;2.42;;
33453;SDS011;39400;49.744;7.012;2023-07-31T14:32:31;4.80;;;2.72;;
33453;SDS011;39400;49.744;7.012;2023-07-31T14:34:57;6.47;;;2.78;;
33453;SDS011;39400;49.744;7.012;2023-07-31T14:37:22;6.10;;;3.10;;
33453;SDS011;39400;49.744;7.012;2023-07-31T14:39:47;4.90;;;2.40;;
33453;SDS011;39400;49.744;7.012;2023-07-31T14:42:13;5.00;;;2.85;;
33453;SDS011;39400;49.744;7.012;2023-07-31T14:44:38;7.63;;;2.72;;
33453;SDS011;39400;49.744;7.012;2023-07-31T14:47:04;8.52;;;2.75;;
33453;SDS011;39400;49.744;7.012;2023-07-31T14:49:29;8.52;;;3.70;;